createdAt,value
2018-09-30T00:01:26.170Z,102343.41
2018-09-30T00:04:29.773Z,102337.90
2018-09-30T00:07:33.277Z,102336.53
2018-09-30T00:10:36.745Z,102334.76
2018-09-30T00:13:40.305Z,102329.36
2018-09-30T00:16:43.786Z,102328.41
2018-09-30T00:19:47.275Z,102325.59
2018-09-30T00:22:50.784Z,102318.40
2018-09-30T00:25:59.541Z,102324.41
2018-09-30T00:29:02.998Z,102321.12
2018-09-30T00:32:06.594Z,102321.15
2018-09-30T00:35:10.132Z,102318.49
2018-09-30T00:38:13.629Z,102314.99
2018-09-30T00:41:17.099Z,102316.27
2018-09-30T00:44:20.616Z,102317.95
2018-09-30T00:47:24.102Z,102316.40
2018-09-30T00:50:27.593Z,102317.39
2018-09-30T00:53:30.992Z,102313.64
2018-09-30T00:56:34.405Z,102314.64
2018-09-30T00:59:37.919Z,102316.26
2018-09-30T01:02:41.469Z,102313.67
2018-09-30T01:05:45.008Z,102315.31
2018-09-30T01:08:48.471Z,102315.59
2018-09-30T01:11:51.974Z,102310.03
2018-09-30T01:14:55.411Z,102309.53
2018-09-30T01:17:58.777Z,102309.45
2018-09-30T01:21:02.231Z,102305.64
2018-09-30T01:24:05.855Z,102308.26
2018-09-30T01:27:09.318Z,102300.38
2018-09-30T01:30:12.965Z,102298.75
2018-09-30T01:33:16.541Z,102295.41
2018-09-30T01:36:20.035Z,102302.38
2018-09-30T01:39:23.445Z,102291.48
2018-09-30T01:42:26.836Z,102291.03
2018-09-30T01:45:30.253Z,102286.20
2018-09-30T01:48:33.753Z,102281.59
2018-09-30T01:51:37.134Z,102279.52
2018-09-30T01:54:40.525Z,102277.87
2018-09-30T01:57:44.029Z,102287.07
2018-09-30T02:00:47.457Z,102281.12
2018-09-30T02:03:50.952Z,102273.90
2018-09-30T02:06:54.400Z,102271.23
2018-09-30T02:09:57.854Z,102267.87
2018-09-30T02:13:01.354Z,102269.55
2018-09-30T02:16:04.751Z,102263.92
2018-09-30T02:19:08.286Z,102265.69
2018-09-30T02:22:11.853Z,102272.88
2018-09-30T02:25:15.274Z,102266.52
2018-09-30T02:28:18.808Z,102260.76
2018-09-30T02:31:22.267Z,102254.06
2018-09-30T02:34:25.678Z,102244.85
2018-09-30T02:37:29.169Z,102247.31
2018-09-30T02:40:32.565Z,102240.24
2018-09-30T02:43:35.978Z,102231.21
2018-09-30T02:46:39.381Z,102224.77
2018-09-30T02:49:42.908Z,102219.91
2018-09-30T02:52:46.542Z,102218.42
2018-09-30T02:55:49.972Z,102203.67
2018-09-30T02:58:53.399Z,102203.81
2018-09-30T03:01:56.773Z,102201.29
2018-09-30T03:05:00.218Z,102195.73
2018-09-30T03:08:09.094Z,102193.90
2018-09-30T03:11:12.525Z,102190.03
2018-09-30T03:14:16.780Z,102198.05
2018-09-30T03:17:20.249Z,102189.89
2018-09-30T03:20:23.645Z,102190.84
2018-09-30T03:23:27.028Z,102191.94
2018-09-30T03:26:30.453Z,102183.57
2018-09-30T03:29:33.837Z,102196.18
2018-09-30T03:32:37.314Z,102193.93
2018-09-30T03:35:40.713Z,102192.63
2018-09-30T03:38:44.124Z,102194.43
2018-09-30T03:41:47.555Z,102184.04
2018-09-30T03:44:50.904Z,102191.74
2018-09-30T03:47:54.339Z,102191.01
2018-09-30T03:50:57.707Z,102191.97
2018-09-30T03:54:01.150Z,102187.13
2018-09-30T03:57:04.533Z,102186.10
2018-09-30T04:00:07.974Z,102178.09
2018-09-30T04:03:11.418Z,102175.44
2018-09-30T04:06:14.828Z,102171.55
2018-09-30T04:09:18.221Z,102182.04
2018-09-30T04:12:21.626Z,102190.23
2018-09-30T04:15:25.051Z,102183.19
2018-09-30T04:18:28.458Z,102173.44
2018-09-30T04:21:31.819Z,102169.49
2018-09-30T04:24:35.227Z,102168.45
2018-09-30T04:27:38.641Z,102170.56
2018-09-30T04:30:42.019Z,102171.35
2018-09-30T04:33:45.417Z,102172.31
2018-09-30T04:36:49.021Z,102170.24
2018-09-30T04:39:52.585Z,102165.86
2018-09-30T04:42:56.026Z,102166.03
2018-09-30T04:45:59.527Z,102159.54
2018-09-30T04:49:03.028Z,102152.64
2018-09-30T04:52:06.868Z,102156.64
2018-09-30T04:55:10.335Z,102162.67
2018-09-30T04:58:13.844Z,102161.99
2018-09-30T05:01:17.353Z,102154.09
2018-09-30T05:04:20.973Z,102155.04
2018-09-30T05:07:24.494Z,102164.42
2018-09-30T05:10:28.433Z,102161.85
2018-09-30T05:13:31.871Z,102164.07
2018-09-30T05:16:35.435Z,102164.70
2018-09-30T05:19:38.879Z,102171.26
2018-09-30T05:22:42.365Z,102169.40
2018-09-30T05:25:45.948Z,102172.45
2018-09-30T05:28:49.475Z,102178.45
2018-09-30T05:31:52.992Z,102174.08
2018-09-30T05:34:56.493Z,102175.17
2018-09-30T05:38:00.230Z,102173.21
2018-09-30T05:41:03.835Z,102173.78
2018-09-30T05:44:08.189Z,102166.30
2018-09-30T05:47:11.732Z,102166.93
2018-09-30T05:50:15.234Z,102168.72
2018-09-30T05:53:18.836Z,102168.90
2018-09-30T05:56:22.352Z,102164.36
2018-09-30T05:59:25.859Z,102168.42
2018-09-30T06:02:29.344Z,102162.65
2018-09-30T06:05:33.156Z,102173.22
2018-09-30T06:08:36.676Z,102166.93
2018-09-30T06:11:40.199Z,102168.70
2018-09-30T06:14:43.682Z,102166.58
2018-09-30T06:17:47.338Z,102165.37
2018-09-30T06:20:50.864Z,102164.25
2018-09-30T06:23:54.400Z,102172.14
2018-09-30T06:26:57.893Z,102177.73
2018-09-30T06:30:01.653Z,102181.59
2018-09-30T06:33:05.626Z,102180.44
2018-09-30T06:36:09.084Z,102184.68
2018-09-30T06:39:12.768Z,102180.80
2018-09-30T06:42:16.274Z,102188.54
2018-09-30T06:45:19.746Z,102195.05
2018-09-30T06:48:23.213Z,102190.97
2018-09-30T06:51:27.086Z,102198.00
2018-09-30T06:54:30.694Z,102190.76
2018-09-30T06:57:34.120Z,102190.90
2018-09-30T07:00:37.634Z,102191.63
2018-09-30T07:03:41.142Z,102184.09
2018-09-30T07:06:44.706Z,102174.14
2018-09-30T07:09:48.088Z,102169.58
2018-09-30T07:12:51.556Z,102161.62
2018-09-30T07:15:55.052Z,102163.67
2018-09-30T07:18:58.584Z,102158.53
2018-09-30T07:22:02.024Z,102168.93
2018-09-30T07:25:05.481Z,102164.34
2018-09-30T07:28:09.170Z,102158.35
2018-09-30T07:31:12.721Z,102154.87
2018-09-30T07:34:16.164Z,102150.33
2018-09-30T07:37:19.664Z,102144.09
2018-09-30T07:40:23.298Z,102142.02
2018-09-30T07:43:26.756Z,102136.51
2018-09-30T07:46:30.171Z,102132.95
2018-09-30T07:49:33.677Z,102142.21
2018-09-30T07:52:37.208Z,102133.79
2018-09-30T07:55:40.789Z,102125.35
2018-09-30T07:58:44.305Z,102129.27
2018-09-30T08:01:47.786Z,102124.69
2018-09-30T08:04:51.187Z,102123.53
2018-09-30T08:07:54.679Z,102120.35
2018-09-30T08:10:58.041Z,102121.35
2018-09-30T08:14:01.531Z,102117.19
2018-09-30T08:17:05.034Z,102118.10
2018-09-30T08:20:08.537Z,102116.87
2018-09-30T08:23:12.006Z,102108.31
2018-09-30T08:26:15.645Z,102101.58
2018-09-30T08:29:19.135Z,102108.77
2018-09-30T08:32:22.641Z,102103.81
2018-09-30T08:35:26.357Z,102099.55
2018-09-30T08:38:31.993Z,102101.87
2018-09-30T08:41:35.484Z,102096.70
2018-09-30T08:44:39.228Z,102094.84
2018-09-30T08:47:42.727Z,102088.65
2018-09-30T08:50:46.207Z,102087.87
2018-09-30T08:53:49.760Z,102089.38
2018-09-30T08:56:53.263Z,102082.55
2018-09-30T08:59:56.736Z,102088.29
2018-09-30T09:03:00.244Z,102089.20
2018-09-30T09:06:03.707Z,102081.77
2018-09-30T09:09:09.981Z,102079.14
2018-09-30T09:12:13.716Z,102076.41
2018-09-30T09:15:17.159Z,102077.79
2018-09-30T09:18:20.582Z,102068.62
2018-09-30T09:21:23.958Z,102064.56
2018-09-30T09:24:27.374Z,102062.39
2018-09-30T09:27:30.872Z,102058.93
2018-09-30T09:30:34.378Z,102055.91
2018-09-30T09:33:37.763Z,102055.68
2018-09-30T09:36:41.163Z,102059.61
2018-09-30T09:39:44.544Z,102047.00
2018-09-30T09:42:48.821Z,102053.85
2018-09-30T09:45:53.288Z,102049.68
2018-09-30T09:48:56.819Z,102038.57
2018-09-30T09:52:00.215Z,102034.74
2018-09-30T09:55:03.713Z,102027.16
2018-09-30T09:58:12.071Z,102024.25
2018-09-30T10:01:15.538Z,102021.03
2018-09-30T10:04:19.039Z,102013.14
2018-09-30T10:07:22.595Z,102010.05
2018-09-30T10:10:26.247Z,102009.73
2018-09-30T10:13:29.859Z,102005.69
2018-09-30T10:16:34.067Z,102001.26
2018-09-30T10:19:37.658Z,101995.28
2018-09-30T10:22:42.099Z,101988.20
2018-09-30T10:25:46.616Z,101984.45
2018-09-30T10:28:51.360Z,101972.03
2018-09-30T10:31:55.954Z,101966.85
2018-09-30T10:34:59.463Z,101963.29
2018-09-30T10:38:02.927Z,101965.25
2018-09-30T10:41:06.524Z,101954.63
2018-09-30T10:44:10.232Z,101951.55
2018-09-30T10:47:13.591Z,101943.27
2018-09-30T10:50:17.235Z,101935.87
2018-09-30T10:53:20.704Z,101931.89
2018-09-30T10:56:24.096Z,101930.93
2018-09-30T10:59:27.599Z,101924.15
2018-09-30T11:02:30.997Z,101924.10
2018-09-30T11:05:34.414Z,101924.95
2018-09-30T11:08:38.280Z,101917.06
2018-09-30T11:11:42.020Z,101911.42
2018-09-30T11:14:46.569Z,101905.28
2018-09-30T11:17:52.117Z,101899.85
2018-09-30T11:20:57.689Z,101898.05
2018-09-30T11:24:01.135Z,101890.13
2018-09-30T11:27:09.190Z,101876.22
2018-09-30T11:30:16.012Z,101868.61
2018-09-30T11:33:19.447Z,101866.32
2018-09-30T11:36:22.843Z,101867.97
2018-09-30T11:39:26.224Z,101860.62
2018-09-30T11:42:29.747Z,101858.51
2018-09-30T11:45:33.150Z,101845.41
2018-09-30T11:48:36.565Z,101835.34
2018-09-30T11:51:40.872Z,101830.16
2018-09-30T11:54:44.482Z,101822.30
2018-09-30T11:57:48.247Z,101814.49
2018-09-30T12:00:51.742Z,101812.54
2018-09-30T12:03:55.258Z,101808.99
2018-09-30T12:06:58.786Z,101798.96
2018-09-30T12:10:02.544Z,101791.36
2018-09-30T12:13:06.023Z,101788.08
2018-09-30T12:16:09.536Z,101781.22
2018-09-30T12:19:13.031Z,101777.63
2018-09-30T12:22:16.505Z,101770.62
2018-09-30T12:25:21.216Z,101761.75
2018-09-30T12:28:24.819Z,101759.27
2018-09-30T12:31:28.344Z,101752.15
2018-09-30T12:34:31.928Z,101748.89
2018-09-30T12:37:35.353Z,101752.28
2018-09-30T12:40:38.876Z,101741.21
2018-09-30T12:43:42.357Z,101738.14
2018-09-30T12:46:45.860Z,101730.91
2018-09-30T12:49:49.386Z,101729.27
2018-09-30T12:52:52.824Z,101731.20
2018-09-30T12:55:56.263Z,101726.99
2018-09-30T12:58:59.770Z,101727.52
2018-09-30T13:02:03.276Z,101726.02
2018-09-30T13:05:07.523Z,101725.43
2018-09-30T13:08:11.057Z,101724.21
2018-09-30T13:11:14.422Z,101717.56
2018-09-30T13:14:17.937Z,101718.25
2018-09-30T13:17:21.454Z,101706.06
2018-09-30T13:20:25.080Z,101704.07
2018-09-30T13:23:28.592Z,101699.21
2018-09-30T13:26:32.117Z,101704.38
2018-09-30T13:29:35.713Z,101696.87
2018-09-30T13:32:39.522Z,101696.71
2018-09-30T13:35:43.070Z,101688.21
2018-09-30T13:38:46.540Z,101683.15
2018-09-30T13:41:50.057Z,101681.67
2018-09-30T13:44:53.599Z,101681.06
2018-09-30T13:47:57.040Z,101672.74
2018-09-30T13:51:00.638Z,101675.94
2018-09-30T13:54:04.141Z,101671.15
2018-09-30T13:57:07.744Z,101667.46
2018-09-30T14:00:11.316Z,101665.96
2018-09-30T14:03:14.773Z,101666.36
2018-09-30T14:06:18.370Z,101659.20
2018-09-30T14:09:21.881Z,101651.04
2018-09-30T14:12:26.927Z,101647.92
2018-09-30T14:15:30.489Z,101634.91
2018-09-30T14:18:33.872Z,101629.33
2018-09-30T14:21:37.325Z,101622.35
2018-09-30T14:24:40.809Z,101621.07
2018-09-30T14:27:44.191Z,101614.84
2018-09-30T14:30:47.759Z,101611.03
2018-09-30T14:33:51.207Z,101607.44
2018-09-30T14:36:54.608Z,101602.70
2018-09-30T14:39:58.111Z,101596.16
2018-09-30T14:43:01.565Z,101594.73
2018-09-30T14:46:05.045Z,101592.06
2018-09-30T14:49:08.524Z,101589.52
2018-09-30T14:52:11.905Z,101584.70
2018-09-30T14:55:15.339Z,101588.66
2018-09-30T14:58:18.911Z,101581.81
2018-09-30T15:01:22.432Z,101579.47
2018-09-30T15:04:28.004Z,101576.11
2018-09-30T15:07:32.191Z,101577.96
2018-09-30T15:10:35.927Z,101574.51
2018-09-30T15:13:41.036Z,101576.16
2018-09-30T15:16:45.754Z,101573.62
2018-09-30T15:19:49.259Z,101569.47
2018-09-30T15:22:52.769Z,101562.97
2018-09-30T15:25:56.379Z,101564.91
2018-09-30T15:28:59.883Z,101562.17
2018-09-30T15:32:03.282Z,101557.24
2018-09-30T15:35:06.715Z,101559.35
2018-09-30T15:38:10.414Z,101556.52
2018-09-30T15:41:13.784Z,101557.81
2018-09-30T15:44:17.193Z,101557.35
2018-09-30T15:47:20.916Z,101554.13
2018-09-30T15:50:24.381Z,101547.11
2018-09-30T15:53:27.926Z,101543.44
2018-09-30T15:56:31.316Z,101535.36
2018-09-30T15:59:34.806Z,101537.37
2018-09-30T16:02:38.304Z,101544.28
2018-09-30T16:05:41.729Z,101545.14
2018-09-30T16:08:45.650Z,101546.38
2018-09-30T16:11:49.214Z,101543.74
2018-09-30T16:14:52.654Z,101548.92
2018-09-30T16:17:56.153Z,101549.21
2018-09-30T16:20:59.584Z,101552.16
2018-09-30T16:24:03.017Z,101549.62
2018-09-30T16:27:06.449Z,101551.02
2018-09-30T16:30:09.922Z,101551.70
2018-09-30T16:33:13.322Z,101549.93
2018-09-30T16:36:16.794Z,101552.59
2018-09-30T16:39:20.240Z,101555.51
2018-09-30T16:42:23.623Z,101558.16
2018-09-30T16:45:27.026Z,101555.43
2018-09-30T16:48:30.505Z,101550.66
2018-09-30T16:51:34.002Z,101548.90
2018-09-30T16:54:37.437Z,101553.78
2018-09-30T16:57:40.827Z,101553.56
2018-09-30T17:00:44.411Z,101547.53
2018-09-30T17:03:48.283Z,101549.91
2018-09-30T17:06:51.700Z,101556.19
2018-09-30T17:09:55.031Z,101551.83
2018-09-30T17:12:58.651Z,101542.98
2018-09-30T17:16:02.158Z,101540.38
2018-09-30T17:19:05.632Z,101538.89
2018-09-30T17:22:09.126Z,101542.39
2018-09-30T17:25:12.558Z,101548.16
2018-09-30T17:28:15.965Z,101550.25
2018-09-30T17:31:19.445Z,101543.01
2018-09-30T17:34:22.843Z,101542.33
2018-09-30T17:37:26.591Z,101546.04
2018-09-30T17:40:30.589Z,101549.39
2018-09-30T17:43:34.086Z,101551.95
2018-09-30T17:46:37.707Z,101554.83
2018-09-30T17:49:41.286Z,101556.66
2018-09-30T17:52:44.955Z,101552.32
2018-09-30T17:55:48.533Z,101550.20
2018-09-30T17:58:52.245Z,101555.19
2018-09-30T18:01:55.831Z,101558.75
2018-09-30T18:04:59.288Z,101556.09
2018-09-30T18:08:02.862Z,101559.58
2018-09-30T18:11:06.458Z,101557.02
2018-09-30T18:14:09.982Z,101565.76
2018-09-30T18:17:13.446Z,101570.54
2018-09-30T18:20:17.000Z,101567.46
2018-09-30T18:23:20.562Z,101563.92
2018-09-30T18:26:24.049Z,101563.29
2018-09-30T18:29:27.536Z,101564.33
2018-09-30T18:32:31.034Z,101567.21
2018-09-30T18:35:34.560Z,101564.87
2018-09-30T18:38:38.055Z,101559.28
2018-09-30T18:41:41.925Z,101557.81
2018-09-30T18:44:45.489Z,101562.76
2018-09-30T18:47:49.198Z,101555.26
2018-09-30T18:50:52.664Z,101552.60
2018-09-30T18:53:56.170Z,101548.34
2018-09-30T18:56:59.757Z,101549.13
2018-09-30T19:00:03.159Z,101549.69
2018-09-30T19:03:06.737Z,101554.16
2018-09-30T19:06:10.196Z,101556.14
2018-09-30T19:09:13.707Z,101552.39
2018-09-30T19:12:17.178Z,101554.21
2018-09-30T19:15:20.707Z,101554.55
2018-09-30T19:18:24.582Z,101555.97
2018-09-30T19:21:28.162Z,101556.02
2018-09-30T19:24:31.602Z,101553.50
2018-09-30T19:27:35.109Z,101561.21
2018-09-30T19:30:38.699Z,101562.68
2018-09-30T19:33:42.218Z,101558.70
2018-09-30T19:36:45.739Z,101559.98
2018-09-30T19:39:49.268Z,101558.00
2018-09-30T19:42:52.882Z,101550.54
2018-09-30T19:45:56.366Z,101555.91
2018-09-30T19:48:59.797Z,101549.63
2018-09-30T19:52:03.228Z,101554.45
2018-09-30T19:55:06.765Z,101562.33
2018-09-30T19:58:10.333Z,101557.18
2018-09-30T20:01:13.840Z,101560.22
2018-09-30T20:04:17.713Z,101567.09
2018-09-30T20:07:21.132Z,101566.58
2018-09-30T20:10:24.600Z,101562.58
2018-09-30T20:13:28.154Z,101553.74
2018-09-30T20:16:31.659Z,101554.02
2018-09-30T20:19:35.267Z,101554.72
2018-09-30T20:22:38.769Z,101554.45
2018-09-30T20:25:42.286Z,101548.93
2018-09-30T20:28:45.927Z,101552.56
2018-09-30T20:31:49.586Z,101547.11
2018-09-30T20:34:54.049Z,101556.86
2018-09-30T20:37:57.591Z,101548.40
2018-09-30T20:41:01.094Z,101549.59
2018-09-30T20:44:05.661Z,101545.17
2018-09-30T20:47:09.173Z,101538.30
2018-09-30T20:50:12.659Z,101538.53
2018-09-30T20:53:16.195Z,101539.75
2018-09-30T20:56:19.741Z,101553.30
2018-09-30T20:59:23.367Z,101552.80
2018-09-30T21:02:26.909Z,101550.98
2018-09-30T21:05:55.316Z,101548.86
2018-09-30T21:08:58.897Z,101540.45
2018-09-30T21:12:02.419Z,101542.17
2018-09-30T21:15:05.955Z,101544.04
2018-09-30T21:18:09.357Z,101546.32
2018-09-30T21:21:12.898Z,101541.86
2018-09-30T21:24:16.442Z,101544.98
2018-09-30T21:27:19.956Z,101550.69
2018-09-30T21:30:23.584Z,101542.23
2018-09-30T21:33:27.140Z,101548.17
2018-09-30T21:36:30.591Z,101543.86
2018-09-30T21:39:34.095Z,101551.15
2018-09-30T21:42:37.597Z,101548.34
2018-09-30T21:45:41.425Z,101553.66
2018-09-30T21:48:44.963Z,101555.47
2018-09-30T21:51:48.403Z,101552.62
2018-09-30T21:54:52.099Z,101546.24
2018-09-30T21:57:55.611Z,101546.87
2018-09-30T22:01:00.258Z,101548.46
2018-09-30T22:04:03.747Z,101547.19
2018-09-30T22:07:07.150Z,101542.37
2018-09-30T22:10:10.529Z,101547.96
2018-09-30T22:13:14.281Z,101568.48
2018-09-30T22:16:17.843Z,101566.20
2018-09-30T22:19:21.328Z,101564.04
2018-09-30T22:22:24.648Z,101561.49
2018-09-30T22:25:28.557Z,101559.30
2018-09-30T22:28:31.971Z,101560.96
2018-09-30T22:31:35.410Z,101559.64
2018-09-30T22:34:43.324Z,101569.76
2018-09-30T22:37:46.970Z,101573.02
2018-09-30T22:40:50.412Z,101574.84
2018-09-30T22:43:53.870Z,101575.44
2018-09-30T22:46:57.261Z,101576.73
2018-09-30T22:50:00.707Z,101570.84
2018-09-30T22:53:04.179Z,101571.13
2018-09-30T22:56:07.574Z,101570.99
2018-09-30T22:59:11.062Z,101574.51
2018-09-30T23:02:15.476Z,101565.45
2018-09-30T23:05:18.919Z,101566.68
2018-09-30T23:08:22.298Z,101574.90
2018-09-30T23:11:25.716Z,101565.62
2018-09-30T23:14:29.095Z,101555.85
2018-09-30T23:17:32.638Z,101559.82
2018-09-30T23:20:36.111Z,101563.78
2018-09-30T23:23:39.607Z,101569.00
2018-09-30T23:26:43.338Z,101576.34
2018-09-30T23:29:46.814Z,101571.57
2018-09-30T23:32:50.392Z,101564.13
2018-09-30T23:35:53.930Z,101562.62
2018-09-30T23:38:57.430Z,101559.32
2018-09-30T23:42:00.946Z,101559.81
2018-09-30T23:45:05.084Z,101553.24
2018-09-30T23:48:08.629Z,101554.57
2018-09-30T23:51:12.140Z,101544.74
2018-09-30T23:54:15.656Z,101544.93
2018-09-30T23:57:19.235Z,101553.82
